Time;durP1;ratioP1;P1;durP2;ratioP2;P2;SDS_P1;SDS_P2;PMS_P1;PMS_P2;Temp;Humidity;BMP_temperature;BMP_pressure;BME280_temperature;BME280_humidity;BME280_pressure;Samples;Min_cycle;Max_cycle;Signal;HPM_P1;HPM_P2
2021/09/21 00:01:34;;;;;;;2.67;2.17;;;;;;;19.93;70.42;101142.53;4983756;28;102257;-47
2021/09/21 00:04:01;;;;;;;2.58;1.95;;;;;;;19.92;70.54;101143.66;4982310;28;102709;-48
2021/09/21 00:06:28;;;;;;;3.35;2.20;;;;;;;19.92;70.58;101146.44;4986555;28;102300;-47
2021/09/21 00:08:54;;;;;;;2.42;2.00;;;;;;;19.90;70.72;101145.94;4985754;28;102587;-48
2021/09/21 00:11:23;;;;;;;2.55;2.33;;;;;;;19.91;70.53;101147.56;4980841;28;102570;-48
2021/09/21 00:13:50;;;;;;;2.50;1.85;;;;;;;19.91;70.49;101153.09;4985456;28;104071;-48
2021/09/21 00:16:20;;;;;;;2.33;1.95;;;;;;;19.92;70.49;101149.19;4985711;28;102269;-48
2021/09/21 00:18:49;;;;;;;2.20;2.00;;;;;;;19.92;70.32;101156.69;4987932;28;102455;-48
2021/09/21 00:21:23;;;;;;;2.75;2.17;;;;;;;19.92;70.72;101159.44;4983656;28;102604;-48
2021/09/21 00:23:50;;;;;;;2.53;1.95;;;;;;;19.91;70.43;101163.34;4985731;28;103887;-49
2021/09/21 00:26:18;;;;;;;2.22;1.95;;;;;;;19.91;70.49;101157.81;4987522;28;102535;-46
2021/09/21 00:28:44;;;;;;;3.55;2.05;;;;;;;19.91;70.17;101166.91;4975322;28;102443;-48
2021/09/21 00:31:11;;;;;;;2.10;1.63;;;;;;;19.90;70.49;101165.28;4986684;28;102334;-49
2021/09/21 00:33:52;;;;;;;2.13;1.88;;;;;;;19.90;70.31;101162.50;4986931;28;102706;-48
2021/09/21 00:36:20;;;;;;;2.33;2.10;;;;;;;19.90;70.45;101164.47;4979770;28;102895;-48
2021/09/21 00:38:48;;;;;;;4.78;2.10;;;;;;;19.90;70.67;101167.22;4975936;28;102215;-48
2021/09/21 00:41:15;;;;;;;2.55;2.00;;;;;;;19.89;70.65;101171.94;4985954;28;102849;-48
2021/09/21 00:43:46;;;;;;;2.22;1.67;;;;;;;19.89;70.30;101166.41;4986420;28;104044;-48
2021/09/21 00:46:13;;;;;;;1.70;1.50;;;;;;;19.89;70.55;101168.38;4982067;28;102317;-47
2021/09/21 00:48:39;;;;;;;2.95;2.00;;;;;;;19.88;70.34;101170.31;4987938;28;105623;-48
2021/09/21 00:51:06;;;;;;;2.10;1.77;;;;;;;19.89;70.26;101179.41;4985144;28;102479;-49
2021/09/21 00:53:34;;;;;;;1.98;1.70;;;;;;;19.88;70.40;101178.59;4987669;28;103924;-47
2021/09/21 00:56:01;;;;;;;;;;;;;;;19.88;70.55;101170.31;4983567;28;102365;-47
2021/09/21 00:58:28;;;;;;;1.88;1.50;;;;;;;19.88;70.24;101178.59;4988281;28;102716;-48
2021/09/21 01:00:56;;;;;;;1.90;1.42;;;;;;;19.87;70.63;101177.00;4984053;28;102256;-49
2021/09/21 01:03:23;;;;;;;2.63;1.73;;;;;;;19.88;70.38;101173.09;4988031;28;104371;-49
2021/09/21 01:05:50;;;;;;;1.52;1.38;;;;;;;19.87;70.27;101179.75;4979619;28;103343;-49
2021/09/21 01:08:17;;;;;;;3.67;1.65;;;;;;;19.87;70.40;101178.91;4979912;28;102865;-48
2021/09/21 01:10:45;;;;;;;2.47;1.38;;;;;;;19.87;70.28;101179.75;4983489;28;102346;-47
2021/09/21 01:13:12;;;;;;;;;;;;;;;19.87;70.66;101179.75;5000530;28;103902;-48
2021/09/21 01:15:39;;;;;;;2.83;1.52;;;;;;;19.87;70.57;101185.28;4975740;28;102041;-49
2021/09/21 01:18:05;;;;;;;1.75;1.60;;;;;;;19.87;70.50;101184.44;4981695;28;102326;-47
2021/09/21 01:20:35;;;;;;;1.70;1.60;;;;;;;19.86;70.39;101185.59;4981770;28;102626;-49
2021/09/21 01:23:04;;;;;;;1.70;1.60;;;;;;;19.86;70.29;101188.34;4980772;28;103891;-49
2021/09/21 01:25:37;;;;;;;1.38;1.27;;;;;;;19.85;70.47;101182.00;4984415;28;102495;-49
2021/09/21 01:28:04;;;;;;;1.90;1.40;;;;;;;19.86;70.39;101183.63;4984112;28;102595;-48
2021/09/21 01:30:31;;;;;;;2.08;1.55;;;;;;;19.86;70.34;101189.16;4989004;28;102592;-47
2021/09/21 01:32:57;;;;;;;1.80;1.60;;;;;;;19.86;70.49;101191.91;4988766;28;103822;-49
2021/09/21 01:35:24;;;;;;;3.97;1.77;;;;;;;19.86;70.43;101183.63;4991498;28;102198;-47
2021/09/21 01:37:51;;;;;;;1.63;1.40;;;;;;;19.85;70.70;101195.81;4991082;28;102407;-47
2021/09/21 01:40:19;;;;;;;2.03;1.65;;;;;;;19.85;70.27;101190.28;4987178;28;102418;-49
2021/09/21 01:42:48;;;;;;;2.93;1.67;;;;;;;19.85;70.29;101187.53;4990284;28;102779;-47
2021/09/21 01:45:16;;;;;;;2.28;1.38;;;;;;;19.85;70.19;101193.06;4987645;28;103025;-48
2021/09/21 01:47:48;;;;;;;1.95;1.70;;;;;;;19.85;70.52;101187.53;4988839;28;102684;-49
2021/09/21 02:00:48;;;;;;;1.70;1.35;;;;;;;19.84;70.33;101207.19;4985191;28;102926;-48
2021/09/21 02:03:15;;;;;;;1.33;1.23;;;;;;;19.85;70.63;101214.34;4987847;28;104066;-47
2021/09/21 02:05:41;;;;;;;1.48;1.38;;;;;;;19.85;70.57;101214.34;4988296;28;102056;-47
2021/09/21 02:08:08;;;;;;;1.30;1.20;;;;;;;19.83;70.37;101200.84;4987647;28;103544;-47
2021/09/21 02:10:34;;;;;;;1.50;1.40;;;;;;;19.83;70.56;101206.38;4988273;28;102698;-48
2021/09/21 02:13:07;;;;;;;1.95;1.30;;;;;;;19.84;70.49;101212.72;4991691;28;103986;-49
2021/09/21 02:15:54;;;;;;;1.43;1.33;;;;;;;19.82;70.45;101207.50;4975933;28;104000;-47
2021/09/21 02:18:20;;;;;;;1.83;1.23;;;;;;;19.83;70.46;101205.56;4985397;28;102362;-48
2021/09/21 02:20:47;;;;;;;1.30;1.15;;;;;;;19.83;70.42;101209.13;4988314;28;103232;-48
2021/09/21 02:23:13;;;;;;;1.55;1.10;;;;;;;19.83;70.41;101200.84;4990603;28;104093;-46
2021/09/21 02:25:40;;;;;;;1.80;1.52;;;;;;;19.83;70.39;101206.38;4988754;28;102639;-48
2021/09/21 02:28:09;;;;;;;1.52;1.42;;;;;;;19.82;70.34;101204.75;4977734;28;102601;-49
2021/09/21 02:30:37;;;;;;;1.90;1.10;;;;;;;19.82;70.38;101204.75;4981299;28;102777;-48
2021/09/21 02:33:04;;;;;;;1.30;1.08;;;;;;;19.83;70.48;101211.09;4981099;28;104513;-48
2021/09/21 02:35:31;;;;;;;1.45;1.30;;;;;;;19.83;70.43;101220.19;4979523;28;102564;-48
2021/09/21 02:38:02;;;;;;;1.70;1.40;;;;;;;19.83;70.49;101216.59;4989075;28;102375;-48
2021/09/21 02:40:30;;;;;;;2.38;1.08;;;;;;;19.83;70.44;101222.13;4983338;28;102232;-48
2021/09/21 02:42:57;;;;;;;1.53;1.33;;;;;;;19.81;70.52;101225.22;4979702;28;103718;-47
2021/09/21 02:45:26;;;;;;;1.25;1.15;;;;;;;19.82;70.35;101226.03;4988765;28;102438;-49
2021/09/21 02:47:52;;;;;;;1.80;1.40;;;;;;;19.82;70.43;101224.06;4986667;28;102661;-48
2021/09/21 02:50:19;;;;;;;1.92;1.33;;;;;;;19.81;70.37;101225.22;4984229;28;102764;-49
2021/09/21 02:52:46;;;;;;;1.35;1.25;;;;;;;19.81;70.60;101233.50;4984299;28;103777;-48
2021/09/21 02:55:13;;;;;;;1.52;1.40;;;;;;;19.81;70.32;101227.97;4986570;28;102434;-49
2021/09/21 02:57:50;;;;;;;2.70;1.23;;;;;;;19.81;70.25;101239.03;4978297;28;102137;-48
2021/09/21 03:00:23;;;;;;;2.53;1.17;;;;;;;19.81;70.52;101241.78;4984852;28;103100;-48
2021/09/21 03:02:53;;;;;;;1.70;1.50;;;;;;;19.81;70.77;101250.09;4976239;28;103639;-50
2021/09/21 03:05:29;;;;;;;2.63;1.50;;;;;;;19.81;70.17;101246.50;4988205;28;102058;-51
2021/09/21 03:18:44;;;;;;;1.85;1.38;;;;;;;19.80;70.47;101245.69;4987647;28;103020;-48
2021/09/21 03:21:11;;;;;;;1.73;1.40;;;;;;;19.80;70.34;101250.38;4991461;28;102544;-47
2021/09/21 03:23:39;;;;;;;1.40;1.30;;;;;;;19.80;70.25;101248.47;4993582;28;102984;-48
2021/09/21 03:26:07;;;;;;;1.40;1.30;;;;;;;19.81;70.43;101250.09;4991562;28;102690;-48
2021/09/21 03:28:35;;;;;;;1.88;1.38;;;;;;;19.80;70.34;101255.91;4982589;28;102057;-48
2021/09/21 03:31:03;;;;;;;1.38;1.27;;;;;;;19.80;70.48;101256.75;4978733;28;102671;-48
2021/09/21 03:33:35;;;;;;;1.20;1.10;;;;;;;19.81;70.42;101265.84;4987805;28;104220;-48
2021/09/21 03:36:04;;;;;;;2.00;1.50;;;;;;;19.80;70.27;101267.78;4980167;28;102693;-49
2021/09/21 03:38:31;;;;;;;1.67;1.55;;;;;;;19.79;70.27;101266.16;4988268;28;102296;-47
2021/09/21 03:41:19;;;;;;;1.30;1.20;;;;;;;19.79;70.57;101268.91;4982455;28;102748;-48
2021/09/21 03:43:45;;;;;;;3.03;1.55;;;;;;;19.79;70.36;101271.66;4987478;28;104136;-48
2021/09/21 03:46:12;;;;;;;1.80;1.70;;;;;;;19.79;70.27;101259.81;4982577;28;102308;-48
2021/09/21 03:48:39;;;;;;;1.45;1.35;;;;;;;19.79;70.44;101276.38;4987079;28;102283;-49
2021/09/21 03:51:06;;;;;;;2.45;1.42;;;;;;;19.78;70.51;101272.81;4982793;28;102394;-48
2021/09/21 03:53:33;;;;;;;1.58;1.38;;;;;;;19.79;70.45;101279.16;4987455;28;103939;-49
2021/09/21 03:55:59;;;;;;;2.08;1.52;;;;;;;19.78;70.31;101274.75;4988938;28;102383;-49
2021/09/21 03:58:28;;;;;;;1.42;1.33;;;;;;;19.78;70.41;101278.34;4988011;28;102657;-49
2021/09/21 04:00:55;;;;;;;1.80;1.40;;;;;;;19.78;70.37;101274.75;4984750;28;106328;-48
2021/09/21 04:03:21;;;;;;;1.40;1.30;;;;;;;19.78;70.72;101281.09;4989077;28;103894;-47
2021/09/21 04:05:48;;;;;;;1.40;1.30;;;;;;;19.78;70.37;101275.56;4987633;28;102295;-48
2021/09/21 04:08:19;;;;;;;2.60;1.50;;;;;;;19.77;70.26;101285.00;4973714;28;102499;-48
2021/09/21 04:10:46;;;;;;;1.73;1.40;;;;;;;19.77;70.53;101273.94;4977381;28;102282;-46
2021/09/21 04:13:14;;;;;;;1.60;1.50;;;;;;;19.77;70.39;101279.47;4986144;28;104084;-46
2021/09/21 04:15:40;;;;;;;1.73;1.33;;;;;;;19.76;70.66;101283.34;4982830;28;102575;-48
2021/09/21 04:18:08;;;;;;;1.70;1.60;;;;;;;19.77;70.39;101284.19;4987422;28;102246;-48
2021/09/21 04:20:35;;;;;;;1.20;1.10;;;;;;;19.77;70.18;101284.19;4989041;28;102498;-49
2021/09/21 04:23:02;;;;;;;1.70;1.50;;;;;;;19.76;70.62;101280.59;4985931;28;103931;-50
2021/09/21 04:25:31;;;;;;;1.58;1.38;;;;;;;19.76;70.60;101283.34;4982965;28;102149;-48
2021/09/21 04:27:58;;;;;;;2.00;1.50;;;;;;;19.76;70.38;101288.06;4984039;28;102431;-48
2021/09/21 04:30:30;;;;;;;1.30;1.20;;;;;;;19.76;70.22;101290.81;4981873;28;102514;-49
2021/09/21 04:32:59;;;;;;;1.40;1.30;;;;;;;19.76;70.35;101293.59;4983577;28;104022;-49
2021/09/21 04:35:41;;;;;;;1.20;1.10;;;;;;;19.75;70.51;101306.59;4985892;28;102621;-48
2021/09/21 04:38:09;;;;;;;1.42;1.33;;;;;;;19.75;70.36;101300.25;4977369;28;102009;-47
2021/09/21 04:40:38;;;;;;;1.70;1.40;;;;;;;19.75;70.23;101298.28;4982877;28;102613;-48
2021/09/21 04:43:05;;;;;;;1.40;1.13;;;;;;;19.76;70.13;101299.09;4986229;28;104074;-48
2021/09/21 04:45:36;;;;;;;1.40;1.30;;;;;;;19.75;70.24;101306.59;4985667;28;102522;-49
2021/09/21 04:48:03;;;;;;;1.40;1.30;;;;;;;19.75;70.50;101301.06;4982387;28;102372;-48
2021/09/21 04:50:30;;;;;;;1.38;1.02;;;;;;;19.74;70.31;101304.97;4981263;28;102740;-47
2021/09/21 04:52:57;;;;;;;1.33;1.23;;;;;;;19.75;70.36;101306.59;4984237;28;103935;-49
2021/09/21 04:55:24;;;;;;;1.60;1.50;;;;;;;19.74;70.38;101307.72;4986453;28;102570;-47
2021/09/21 04:57:53;;;;;;;1.30;1.20;;;;;;;19.74;70.31;101313.25;4985014;28;102396;-47
2021/09/21 05:00:20;;;;;;;1.40;1.20;;;;;;;19.74;70.27;101312.44;4982304;28;102400;-49
2021/09/21 05:02:47;;;;;;;1.40;1.30;;;;;;;19.75;70.54;101309.34;4975433;28;103896;-48
2021/09/21 05:05:15;;;;;;;1.30;1.20;;;;;;;19.75;70.43;101298.28;4975902;28;102729;-47
2021/09/21 05:07:43;;;;;;;1.48;1.38;;;;;;;19.74;70.19;101307.72;4979185;28;102873;-48
2021/09/21 05:10:10;;;;;;;1.58;1.48;;;;;;;19.75;70.36;101314.88;4985501;28;102747;-48
2021/09/21 05:12:38;;;;;;;1.60;1.50;;;;;;;19.74;70.30;101307.72;4986433;28;104058;-49
2021/09/21 05:15:07;;;;;;;1.40;1.30;;;;;;;19.75;70.11;101314.06;4984015;28;102430;-48
2021/09/21 05:17:36;;;;;;;1.40;1.30;;;;;;;19.76;70.37;101312.91;4982714;28;103088;-48
2021/09/21 05:20:04;;;;;;;1.30;1.20;;;;;;;19.75;70.12;101314.88;4972479;28;102288;-48
2021/09/21 05:22:31;;;;;;;1.58;1.42;;;;;;;19.76;70.48;101324.78;4975223;28;102803;-48
2021/09/21 05:24:58;;;;;;;1.40;1.30;;;;;;;19.76;70.20;101323.97;4984942;28;102470;-47
2021/09/21 05:27:25;;;;;;;1.45;1.15;;;;;;;19.77;70.54;101322.84;4975606;28;102472;-49
2021/09/21 05:29:54;;;;;;;1.92;1.50;;;;;;;19.77;70.33;101326.44;4968430;28;102244;-48
2021/09/21 05:32:22;;;;;;;2.78;1.55;;;;;;;19.78;70.36;101325.28;4980113;28;103177;-46
2021/09/21 05:34:48;;;;;;;2.13;1.55;;;;;;;19.79;70.33;101326.91;4981563;28;102408;-49
2021/09/21 05:37:15;;;;;;;1.40;1.30;;;;;;;19.80;70.34;101324.94;4974388;28;103014;-47
2021/09/21 05:39:42;;;;;;;1.20;1.10;;;;;;;19.80;70.20;101328.56;4982965;28;102444;-47
2021/09/21 05:42:08;;;;;;;1.00;0.90;;;;;;;19.80;69.96;101328.56;4985445;28;104068;-46
2021/09/21 05:44:37;;;;;;;1.08;1.00;;;;;;;19.81;70.17;101335.69;4983925;28;102401;-48
2021/09/21 05:47:04;;;;;;;1.48;1.10;;;;;;;19.81;69.94;101335.69;4980486;28;102615;-48
2021/09/21 05:49:33;;;;;;;1.25;1.15;;;;;;;19.82;69.98;101342.84;4979326;28;103325;-48
2021/09/21 05:51:59;;;;;;;1.13;1.00;;;;;;;19.82;70.05;101337.31;4977128;28;103927;-48
2021/09/21 05:54:26;;;;;;;1.30;1.20;;;;;;;19.82;70.10;101348.38;4983376;28;103562;-46
2021/09/21 05:56:53;;;;;;;1.00;0.90;;;;;;;19.83;70.02;101355.50;4980212;28;102499;-49
2021/09/21 05:59:20;;;;;;;1.17;0.85;;;;;;;19.83;70.10;101351.94;4984293;28;102136;-46
2021/09/21 06:01:49;;;;;;;1.20;1.10;;;;;;;19.83;70.10;101343.66;4979108;28;103877;-48
2021/09/21 06:04:15;;;;;;;0.93;0.90;;;;;;;19.83;70.03;101354.69;4980520;28;102091;-48
2021/09/21 06:06:44;;;;;;;1.10;1.00;;;;;;;19.82;70.07;101345.59;4971384;28;102125;-48
2021/09/21 06:09:11;;;;;;;1.33;1.23;;;;;;;19.84;69.76;101348.06;4987636;28;102413;-49
2021/09/21 06:11:38;;;;;;;1.42;1.33;;;;;;;19.84;70.08;101348.06;4981991;28;103732;-46
2021/09/21 06:14:06;;;;;;;1.30;1.20;;;;;;;19.84;69.68;101351.63;4979964;28;102797;-48
2021/09/21 06:16:33;;;;;;;1.15;1.05;;;;;;;19.84;69.81;101359.91;4974701;28;107039;-47
2021/09/21 06:19:00;;;;;;;1.25;1.15;;;;;;;19.83;69.71;101361.03;4980111;28;102697;-48
2021/09/21 06:21:27;;;;;;;1.08;1.02;;;;;;;19.84;70.05;101357.16;4978906;28;103847;-48
2021/09/21 06:23:58;;;;;;;1.20;1.10;;;;;;;19.84;70.13;101346.13;4984947;28;103578;-48
2021/09/21 06:26:25;;;;;;;1.30;1.20;;;;;;;19.85;70.04;101357.97;4981776;28;103616;-49
2021/09/21 06:28:52;;;;;;;1.85;1.23;;;;;;;19.86;69.90;101354.06;4985767;28;102467;-49
2021/09/21 06:31:19;;;;;;;1.70;1.38;;;;;;;19.85;70.08;101353.25;4977245;28;103430;-48
2021/09/21 06:33:46;;;;;;;1.38;1.27;;;;;;;19.85;69.86;101353.25;4983934;28;106254;-49
2021/09/21 06:36:13;;;;;;;1.10;1.00;;;;;;;19.85;70.16;101342.22;4981340;28;102462;-48
2021/09/21 06:38:40;;;;;;;1.70;1.03;;;;;;;19.85;70.01;101342.22;4986405;28;102283;-48
2021/09/21 06:41:08;;;;;;;1.30;1.20;;;;;;;19.85;70.04;101344.16;4980654;28;102856;-48
2021/09/21 06:43:35;;;;;;;1.77;1.20;;;;;;;19.86;69.93;101352.13;4986424;28;102459;-48
2021/09/21 06:46:02;;;;;;;1.27;1.17;;;;;;;19.86;69.72;101356.84;4974278;28;103380;-48
2021/09/21 06:48:29;;;;;;;1.30;1.20;;;;;;;19.86;69.78;101354.06;4986064;28;102289;-48
2021/09/21 06:50:56;;;;;;;1.17;1.08;;;;;;;19.85;69.74;101361.53;4983516;28;103808;-48
2021/09/21 06:53:23;;;;;;;1.42;1.33;;;;;;;19.85;70.00;101367.06;4983832;28;102619;-48
2021/09/21 06:55:50;;;;;;;1.38;1.27;;;;;;;19.87;70.12;101366.75;4983446;28;102881;-49
2021/09/21 06:58:19;;;;;;;2.08;1.10;;;;;;;19.86;70.07;101365.94;4983688;28;103060;-48
2021/09/21 07:00:46;;;;;;;1.50;1.25;;;;;;;19.85;69.84;101361.53;4996259;28;103948;-49
2021/09/21 07:03:13;;;;;;;1.10;0.95;;;;;;;19.85;69.92;101369.81;4985799;28;102855;-48
2021/09/21 07:05:40;;;;;;;2.10;1.17;;;;;;;19.85;70.05;101371.78;4983304;28;102785;-47
2021/09/21 07:08:07;;;;;;;1.25;1.15;;;;;;;19.85;70.06;101372.59;4986097;28;103064;-48
2021/09/21 07:10:35;;;;;;;1.20;1.00;;;;;;;19.84;70.20;101368.22;4985549;28;108097;-49
2021/09/21 07:13:01;;;;;;;1.08;1.05;;;;;;;19.85;70.03;101374.53;4988166;28;102111;-48
2021/09/21 07:15:30;;;;;;;1.70;1.20;;;;;;;19.83;69.93;101377.59;4984659;28;102850;-49
2021/09/21 07:17:57;;;;;;;2.33;1.10;;;;;;;19.83;70.10;101388.66;4979380;28;102517;-47
2021/09/21 07:20:26;;;;;;;1.10;1.00;;;;;;;19.83;69.88;101394.19;4987998;28;102339;-46
2021/09/21 07:22:53;;;;;;;0.85;0.85;;;;;;;19.83;69.83;101382.31;5006848;28;103404;-49
2021/09/21 07:25:21;;;;;;;1.08;0.90;;;;;;;19.81;69.86;101384.59;4983713;28;104583;-48
2021/09/21 07:27:49;;;;;;;1.23;1.00;;;;;;;19.81;70.18;101390.94;4988983;28;102451;-48
2021/09/21 07:30:16;;;;;;;1.07;0.83;;;;;;;19.80;69.80;101378.25;4986509;28;103154;-48
2021/09/21 07:32:46;;;;;;;1.05;0.93;;;;;;;19.80;70.16;101381.03;4989784;28;102596;-49
2021/09/21 07:35:12;;;;;;;1.75;0.95;;;;;;;19.79;70.05;101379.38;4984557;28;103611;-48
2021/09/21 07:37:39;;;;;;;1.38;1.05;;;;;;;19.79;69.87;101373.84;4976197;28;102121;-48
2021/09/21 07:40:09;;;;;;;1.08;0.98;;;;;;;19.78;70.17;101380.53;4986529;28;104131;-48
2021/09/21 07:42:36;;;;;;;1.10;0.90;;;;;;;19.77;69.56;101384.41;4989312;28;102585;-51
2021/09/21 07:45:03;;;;;;;1.15;0.90;;;;;;;19.77;69.91;101378.91;4983022;28;103306;-48
2021/09/21 07:47:31;;;;;;;1.10;0.90;;;;;;;19.77;70.01;101378.91;4986993;28;102479;-49
2021/09/21 07:49:59;;;;;;;1.10;0.90;;;;;;;19.77;69.96;101378.91;4984747;28;103957;-47
2021/09/21 07:52:27;;;;;;;0.93;0.77;;;;;;;19.77;69.98;101372.56;4984657;28;102650;-50
2021/09/21 07:54:54;;;;;;;0.90;0.70;;;;;;;19.76;69.81;101381.97;4989915;28;102229;-50
2021/09/21 07:57:20;;;;;;;0.73;0.73;;;;;;;19.77;69.99;101376.13;4986593;28;102412;-49
2021/09/21 07:59:47;;;;;;;1.83;0.60;;;;;;;19.76;69.94;101377.25;4985233;28;103890;-48
2021/09/21 08:02:14;;;;;;;1.05;0.82;;;;;;;19.75;69.95;101380.34;4979345;28;102528;-48
2021/09/21 08:04:42;;;;;;;1.00;0.80;;;;;;;19.75;69.70;101386.66;4974956;28;102680;-48
2021/09/21 08:07:11;;;;;;;0.68;0.68;;;;;;;19.75;69.93;101386.66;4979651;28;102454;-48
2021/09/21 08:09:38;;;;;;;0.73;0.73;;;;;;;19.76;69.77;101382.78;4973006;28;104028;-47
2021/09/21 08:12:14;;;;;;;0.82;0.80;;;;;;;19.77;69.82;101378.09;4980997;28;102625;-49
2021/09/21 08:14:40;;;;;;;0.68;0.65;;;;;;;19.76;69.91;101382.78;4984980;28;102453;-48
2021/09/21 08:17:08;;;;;;;0.68;0.68;;;;;;;19.75;69.61;101381.16;4988607;28;102694;-49
2021/09/21 08:19:34;;;;;;;0.90;0.80;;;;;;;19.76;69.73;101377.25;4982986;28;102972;-47
2021/09/21 08:22:02;;;;;;;1.08;0.60;;;;;;;19.77;69.60;101378.09;4989007;28;105323;-49
2021/09/21 08:24:31;;;;;;;;;;;;;;;19.76;69.69;101377.25;4981377;28;102858;-48
2021/09/21 08:26:58;;;;;;;0.85;0.60;;;;;;;19.78;69.85;101375.00;4979970;28;102465;-50
2021/09/21 08:29:25;;;;;;;0.75;0.75;;;;;;;19.77;69.79;101370.63;4980053;28;103903;-48
2021/09/21 08:31:53;;;;;;;1.33;0.77;;;;;;;19.78;69.76;101371.44;4978680;28;102292;-47
2021/09/21 08:34:22;;;;;;;1.05;0.70;;;;;;;19.79;69.76;101364.75;4983919;28;102446;-47
2021/09/21 08:36:51;;;;;;;;;;;;;;;19.79;69.67;101364.75;4983496;28;102907;-49
2021/09/21 08:39:17;;;;;;;0.70;0.70;;;;;;;19.79;69.68;101362.81;4978057;28;103881;-47
2021/09/21 08:41:46;;;;;;;1.25;0.70;;;;;;;19.78;69.41;101358.44;4978620;28;102770;-48
2021/09/21 08:44:13;;;;;;;0.82;0.73;;;;;;;19.80;69.45;101355.34;4986057;28;102384;-47
2021/09/21 08:46:39;;;;;;;0.70;0.70;;;;;;;19.79;69.46;101340.72;4982742;28;102110;-47
2021/09/21 08:49:06;;;;;;;0.70;0.70;;;;;;;19.78;69.68;101347.38;4985092;28;103623;-47
2021/09/21 08:51:33;;;;;;;1.05;0.90;;;;;;;19.79;69.25;101350.94;4981825;28;102262;-49
2021/09/21 08:53:59;;;;;;;1.02;0.93;;;;;;;19.78;69.32;101341.84;4977327;28;102741;-49
2021/09/21 08:56:26;;;;;;;0.77;0.70;;;;;;;19.79;69.33;101346.25;4978294;28;102501;-49
2021/09/21 08:59:04;;;;;;;0.87;0.87;;;;;;;19.79;69.58;101348.19;4983459;28;103184;-49
2021/09/21 09:01:38;;;;;;;0.73;0.60;;;;;;;19.79;69.27;101346.25;4976046;28;102665;-48
2021/09/21 09:04:06;;;;;;;0.77;0.60;;;;;;;19.80;69.56;101356.19;4978522;28;102466;-48
2021/09/21 09:06:41;;;;;;;0.52;0.52;;;;;;;19.78;69.46;101347.38;4981541;28;102589;-48
2021/09/21 09:09:11;;;;;;;0.90;0.70;;;;;;;19.79;69.42;101349.00;4981826;28;107436;-48
2021/09/21 09:11:38;;;;;;;1.13;0.80;;;;;;;19.79;69.41;101354.53;4983623;28;102618;-49
2021/09/21 09:14:06;;;;;;;1.27;0.90;;;;;;;19.79;69.38;101343.47;4986547;28;102439;-48
2021/09/21 09:16:34;;;;;;;0.50;0.45;;;;;;;19.79;69.58;101354.53;4979820;28;102666;-48
2021/09/21 09:19:03;;;;;;;0.60;0.60;;;;;;;19.79;69.48;101349.00;4981131;28;103723;-49
2021/09/21 09:21:32;;;;;;;0.73;0.70;;;;;;;19.79;69.40;101349.00;4984331;28;102369;-48
2021/09/21 09:23:59;;;;;;;0.90;0.80;;;;;;;19.79;69.43;101343.47;4987745;28;101911;-47
2021/09/21 09:26:26;;;;;;;1.20;0.77;;;;;;;19.79;69.54;101342.66;4980724;28;102676;-48
2021/09/21 09:28:55;;;;;;;0.70;0.70;;;;;;;19.78;69.33;101347.38;4985509;28;103949;-48
2021/09/21 09:31:27;;;;;;;;;;;;;;;19.79;69.35;101360.03;4983122;28;102580;-47
2021/09/21 09:34:09;;;;;;;1.30;0.60;;;;;;;19.79;69.59;101343.47;4980859;28;102713;-47
2021/09/21 09:36:46;;;;;;;0.70;0.52;;;;;;;19.80;69.78;101349.81;4978307;28;102492;-47
2021/09/21 09:39:13;;;;;;;0.70;0.60;;;;;;;19.79;69.34;101354.53;4984123;28;104574;-47
2021/09/21 09:41:42;;;;;;;0.80;0.80;;;;;;;19.78;69.53;101347.38;4982153;28;102582;-48
2021/09/21 09:44:11;;;;;;;3.53;0.80;;;;;;;19.79;69.40;101359.22;4979315;28;102992;-48
2021/09/21 09:46:47;;;;;;;0.60;0.50;;;;;;;19.78;69.53;101363.94;4991566;28;102954;-48
2021/09/21 09:49:18;;;;;;;1.13;0.52;;;;;;;19.79;69.37;101365.56;4981932;28;103961;-48
2021/09/21 09:51:47;;;;;;;0.80;0.80;;;;;;;19.79;69.25;101356.47;4987215;28;102450;-48
2021/09/21 09:54:14;;;;;;;1.38;0.73;;;;;;;19.78;69.64;101355.66;4983052;28;102247;-49
2021/09/21 09:56:42;;;;;;;0.77;0.70;;;;;;;19.79;69.42;101360.03;4983732;28;102196;-48
2021/09/21 09:59:12;;;;;;;0.93;0.60;;;;;;;19.77;69.61;101373.38;4978572;28;104598;-48
2021/09/21 10:01:42;;;;;;;0.70;0.60;;;;;;;19.78;69.23;101380.53;4985260;28;102689;-48
2021/09/21 10:04:10;;;;;;;0.60;0.60;;;;;;;19.78;69.28;101374.19;4982634;28;104722;-48
2021/09/21 10:06:37;;;;;;;0.70;0.50;;;;;;;19.78;69.71;101369.47;4990374;28;103954;-48
2021/09/21 10:09:04;;;;;;;0.70;0.70;;;;;;;19.77;69.66;101378.91;4981301;28;102806;-49
2021/09/21 10:11:34;;;;;;;0.88;0.75;;;;;;;19.78;69.38;101380.53;4990263;28;103239;-47
2021/09/21 10:14:03;;;;;;;0.65;0.65;;;;;;;19.78;69.60;101385.22;4985758;28;102688;-48
2021/09/21 10:16:34;;;;;;;0.60;0.60;;;;;;;19.77;69.56;101378.91;4976781;28;102541;-48
2021/09/21 10:19:03;;;;;;;0.70;0.70;;;;;;;19.76;69.49;101371.72;4984794;28;104011;-48
2021/09/21 10:21:35;;;;;;;0.60;0.60;;;;;;;19.77;69.29;101378.09;4981076;28;102352;-48
2021/09/21 10:24:04;;;;;;;0.50;0.50;;;;;;;19.76;69.58;101377.25;4983759;28;102466;-46
2021/09/21 10:26:32;;;;;;;0.80;0.80;;;;;;;19.76;69.31;101371.72;4990417;28;102345;-47
2021/09/21 10:29:01;;;;;;;1.52;0.70;;;;;;;19.77;69.49;101378.91;4986327;28;103932;-49
2021/09/21 10:31:28;;;;;;;2.20;0.70;;;;;;;19.76;69.44;101371.72;4992202;28;102590;-48
2021/09/21 10:33:55;;;;;;;1.05;0.70;;;;;;;19.76;69.38;101371.72;4980049;28;102450;-48
2021/09/21 10:36:29;;;;;;;0.60;0.60;;;;;;;19.76;69.62;101374.47;4986042;28;102372;-48
2021/09/21 10:38:58;;;;;;;0.50;0.40;;;;;;;19.75;69.40;101372.88;4986939;28;103595;-47
2021/09/21 10:41:26;;;;;;;0.77;0.57;;;;;;;19.76;69.26;101382.78;4976740;28;102716;-48
2021/09/21 10:44:03;;;;;;;0.80;0.70;;;;;;;19.77;69.21;101383.63;4983772;28;102468;-47
2021/09/21 10:46:41;;;;;;;1.88;0.90;;;;;;;19.75;69.41;101375.63;4977506;28;102781;-47
2021/09/21 10:49:09;;;;;;;0.70;0.70;;;;;;;19.75;69.47;101380.34;4983862;28;104058;-47
2021/09/21 10:51:47;;;;;;;0.60;0.60;;;;;;;19.76;69.36;101382.78;4975383;28;102595;-47
2021/09/21 10:54:16;;;;;;;0.80;0.80;;;;;;;19.77;69.60;101378.09;4976719;28;102687;-47
2021/09/21 10:56:49;;;;;;;;;;;;;;;19.75;69.50;101375.63;4987701;28;102265;-48
2021/09/21 10:59:18;;;;;;;2.05;0.70;;;;;;;19.75;69.50;101380.34;4986387;28;103916;-45
2021/09/21 11:01:48;;;;;;;0.60;0.60;;;;;;;19.75;69.52;101380.34;4974942;28;102216;-46
2021/09/21 11:04:14;;;;;;;;;;;;;;;19.76;69.42;101379.19;4983253;28;102452;-46
2021/09/21 11:06:45;;;;;;;0.52;0.50;;;;;;;19.75;69.52;101374.81;4981365;28;102372;-47
2021/09/21 11:09:12;;;;;;;0.50;0.50;;;;;;;19.74;69.52;101379.53;4979357;28;104031;-48
2021/09/21 11:11:40;;;;;;;0.70;0.68;;;;;;;19.75;69.52;101385.88;4976123;28;102420;-48
2021/09/21 11:14:09;;;;;;;0.70;0.70;;;;;;;19.75;69.43;101394.97;4981314;28;102607;-47
2021/09/21 11:16:36;;;;;;;0.85;0.60;;;;;;;19.74;69.46;101389.75;4983675;28;104637;-48
2021/09/21 11:19:06;;;;;;;1.15;0.80;;;;;;;19.74;69.46;101389.75;4986077;28;103960;-49
2021/09/21 11:21:34;;;;;;;0.88;0.70;;;;;;;19.73;69.55;101386.19;4983255;28;102750;-48
2021/09/21 11:24:06;;;;;;;0.70;0.68;;;;;;;19.73;69.44;101388.94;4983548;28;102592;-48
2021/09/21 11:26:32;;;;;;;0.60;0.60;;;;;;;19.73;69.38;101388.94;4984357;28;102555;-46
2021/09/21 11:28:59;;;;;;;0.77;0.60;;;;;;;19.73;69.34;101394.47;4983853;28;103882;-48
2021/09/21 11:31:47;;;;;;;1.13;0.80;;;;;;;19.73;69.77;101397.25;4980625;28;102518;-46
2021/09/21 11:34:14;;;;;;;0.90;0.90;;;;;;;19.74;69.61;101395.28;4988709;28;102497;-48
2021/09/21 11:36:46;;;;;;;0.98;0.90;;;;;;;19.72;69.64;101392.81;4983961;28;104139;-48
2021/09/21 11:39:13;;;;;;;1.00;0.70;;;;;;;19.73;69.36;101396.44;4984834;28;103840;-48
2021/09/21 11:41:41;;;;;;;;;;;;;;;19.73;69.87;101397.25;4984484;28;102740;-47
2021/09/21 11:44:07;;;;;;;0.90;0.80;;;;;;;19.73;69.67;101396.44;4982851;28;102689;-47
2021/09/21 11:46:35;;;;;;;1.17;1.07;;;;;;;19.72;69.35;101398.34;4989522;28;102795;-48